< < Back
Terminal Aerodrome Forecast


Current Version              Previous Versions:   1  2  3  4  5  6  7  8  9  

Terminal Aerodrome Forecast

895
FTUS42 KGSP 302334
TAFCLT
TAF
KCLT 302334Z 3100/3124 03005KT P6SM VCSH SCT060 SCT250
     FM310400 01004KT P6SM SCT060
     FM310800 01009KT P6SM FEW060 FEW250
     FM311800 02006KT P6SM FEW060=



Latest METAR

507
SAUS70 KWBC 310300 RRC
MTRCLT
METAR KCLT 310252Z 34008G17KT 10SM BKN060 BKN120 BKN250 29/22 A2995 RMK
AO2 SLP130 LTG DSNT N AND W T02890217 53020


USA.gov is the U.S. government's official web portal to all federal, state and local government web resources and services.